Westerville, OH (43082)

6:40 AM EST on February 28, 2017 (GMT -0500)
Pine Hollow | | Change Station

Elev 934 ft 40.15 °N, 82.90 °W | Updated 27 seconds ago

Overcast
Overcast
43.0 °F
Feels Like 41 °F
N
3.7
Wind Variable Wind from ESE

Today
High -- | Low -- °F
--% Chance of Precip.
Yesterday
High -- | Low -- °F
Precip. -- in
Pressure 30.16 in
Visibility 10.0 miles
Clouds Mostly Cloudy 10000 ft
Overcast 11000 ft
Windchill 41 °F
Dew Point 39 °F
Humidity 87%
Rainfall 0.00 in
Snow Depth Not available.
7:06 AM 6:22 PM
Waxing Crescent, 4% visible
METAR KOSU 281053Z AUTO 00000KT 10SM BKN100 OVC110 05/04 A3015 RMK AO2 SLP213 T00500039
Pressure 30.16 in
Visibility 10.0 miles
Clouds Mostly Cloudy 10000 ft
Overcast 11000 ft
Windchill 41 °F
Dew Point 39 °F
Humidity 87%
Rainfall 0.00 in
Snow Depth Not available.
7:06 AM 6:22 PM
Waxing Crescent, 4% visible
METAR KOSU 281053Z AUTO 00000KT 10SM BKN100 OVC110 05/04 A3015 RMK AO2 SLP213 T00500039

Get Your Daily Forecast Email!

Thanks for signing up!

Be on the lookout for a verification email in your inbox.

You'll start receiving the daily forecast at 8 AM.

×

10-Day Weather Forecast

Almanac

Astronomy

Feb. 28, 2017 Rise Set
Actual Time
Civil Twilight
Nautical Twilight
Astronomical Twilight
Moon
Length of Visible Light
Length of Day
Tomorrow will be .
, % of the Moon is Illuminated

Today's Extremes

State Highs State Lows

Community

WunderPhotos

Upload Photos

1,962,540 photos uploaded!

WunderBlog® & News

Nearby

Air Quality

  Air Quality AQ Index Pollutant
Not available.

Snow Depth

Station Depth Elevation

Earthquake Activity

City Distance Mag. Time & Date
Minimum magnitude displayed is 2.5.

Coastal Water Temperatures

Place Temperature

Stations

Nearby Weather Stations

Station Location Temp. Windchill Dew Point Humidity Wind Precip. Elev Updated Type
                   

Watches & Warnings

There are currently no watches in effect.